Aviation Digital Data Service (ADDS)

Output produced by METARs form (1731 UTC 21 November 2017)
found at http://aviationweather.gov/adds/metars/
 
KAEX 211141Z 2112/2212 13004KT P6SM SCT250 
     FM211600 13006KT P6SM OVC050 
     FM212100 11004KT P6SM VCSH OVC025 
     FM220100 07003KT P6SM VCSH OVC025 
     FM220600 36004KT P6SM OVC025